sensor_id;sensor_type;location;lat;lon;timestamp;P1;durP1;ratioP1;P2;durP2;ratioP2
6101;SDS011;3081;50.584;7.032;2023-07-16T00:01:13;8.13;;;1.80;;
6101;SDS011;3081;50.584;7.032;2023-07-16T00:03:40;7.80;;;1.60;;
6101;SDS011;3081;50.584;7.032;2023-07-16T00:06:07;7.67;;;1.60;;
6101;SDS011;3081;50.584;7.032;2023-07-16T00:08:34;7.50;;;1.83;;
6101;SDS011;3081;50.584;7.032;2023-07-16T00:11:04;7.50;;;1.40;;
6101;SDS011;3081;50.584;7.032;2023-07-16T00:13:31;8.90;;;1.57;;
6101;SDS011;3081;50.584;7.032;2023-07-16T00:15:58;12.60;;;1.70;;
6101;SDS011;3081;50.584;7.032;2023-07-16T00:18:24;8.00;;;1.60;;
6101;SDS011;3081;50.584;7.032;2023-07-16T00:20:51;8.83;;;1.50;;
6101;SDS011;3081;50.584;7.032;2023-07-16T00:23:18;10.63;;;1.87;;
6101;SDS011;3081;50.584;7.032;2023-07-16T00:25:45;9.90;;;1.60;;
6101;SDS011;3081;50.584;7.032;2023-07-16T00:28:13;6.83;;;1.47;;
6101;SDS011;3081;50.584;7.032;2023-07-16T00:30:40;9.30;;;1.57;;
6101;SDS011;3081;50.584;7.032;2023-07-16T00:33:07;8.87;;;1.80;;
6101;SDS011;3081;50.584;7.032;2023-07-16T00:35:34;7.83;;;1.33;;
6101;SDS011;3081;50.584;7.032;2023-07-16T00:38:01;7.60;;;1.60;;
6101;SDS011;3081;50.584;7.032;2023-07-16T00:40:28;7.60;;;1.70;;
6101;SDS011;3081;50.584;7.032;2023-07-16T00:42:55;6.97;;;1.27;;
6101;SDS011;3081;50.584;7.032;2023-07-16T00:45:23;8.30;;;1.50;;
6101;SDS011;3081;50.584;7.032;2023-07-16T00:47:50;9.70;;;1.67;;
6101;SDS011;3081;50.584;7.032;2023-07-16T00:50:17;8.70;;;1.83;;
6101;SDS011;3081;50.584;7.032;2023-07-16T00:52:44;8.93;;;1.70;;
6101;SDS011;3081;50.584;7.032;2023-07-16T00:55:11;13.97;;;1.70;;
6101;SDS011;3081;50.584;7.032;2023-07-16T00:57:38;9.10;;;1.67;;
6101;SDS011;3081;50.584;7.032;2023-07-16T01:00:06;9.30;;;1.57;;
6101;SDS011;3081;50.584;7.032;2023-07-16T01:02:36;6.60;;;1.37;;
6101;SDS011;3081;50.584;7.032;2023-07-16T01:05:03;7.80;;;1.50;;
6101;SDS011;3081;50.584;7.032;2023-07-16T01:07:31;9.03;;;1.50;;
6101;SDS011;3081;50.584;7.032;2023-07-16T01:09:58;7.10;;;1.50;;
6101;SDS011;3081;50.584;7.032;2023-07-16T01:12:25;8.60;;;1.60;;
6101;SDS011;3081;50.584;7.032;2023-07-16T01:14:53;7.80;;;1.60;;
6101;SDS011;3081;50.584;7.032;2023-07-16T01:17:22;7.30;;;1.70;;
6101;SDS011;3081;50.584;7.032;2023-07-16T01:19:50;8.37;;;1.77;;
6101;SDS011;3081;50.584;7.032;2023-07-16T01:22:26;7.87;;;1.93;;
6101;SDS011;3081;50.584;7.032;2023-07-16T01:25:09;8.43;;;1.80;;
6101;SDS011;3081;50.584;7.032;2023-07-16T01:30:53;8.00;;;1.20;;
6101;SDS011;3081;50.584;7.032;2023-07-16T01:33:24;7.57;;;1.73;;
6101;SDS011;3081;50.584;7.032;2023-07-16T01:35:52;12.00;;;1.47;;
6101;SDS011;3081;50.584;7.032;2023-07-16T01:38:20;6.93;;;1.63;;
6101;SDS011;3081;50.584;7.032;2023-07-16T01:40:48;7.63;;;1.70;;
6101;SDS011;3081;50.584;7.032;2023-07-16T01:43:15;7.37;;;1.67;;
6101;SDS011;3081;50.584;7.032;2023-07-16T01:45:42;7.47;;;1.47;;
6101;SDS011;3081;50.584;7.032;2023-07-16T01:48:14;7.37;;;1.43;;
6101;SDS011;3081;50.584;7.032;2023-07-16T01:50:46;9.30;;;1.60;;
6101;SDS011;3081;50.584;7.032;2023-07-16T01:53:13;8.30;;;1.50;;
6101;SDS011;3081;50.584;7.032;2023-07-16T01:55:40;8.53;;;2.00;;
6101;SDS011;3081;50.584;7.032;2023-07-16T01:58:07;7.47;;;1.70;;
6101;SDS011;3081;50.584;7.032;2023-07-16T02:00:34;7.20;;;1.70;;
6101;SDS011;3081;50.584;7.032;2023-07-16T02:03:02;8.13;;;1.77;;
6101;SDS011;3081;50.584;7.032;2023-07-16T02:05:30;11.57;;;1.60;;
6101;SDS011;3081;50.584;7.032;2023-07-16T02:07:57;7.67;;;1.60;;
6101;SDS011;3081;50.584;7.032;2023-07-16T02:10:24;8.00;;;1.70;;
6101;SDS011;3081;50.584;7.032;2023-07-16T02:12:51;6.93;;;1.20;;
6101;SDS011;3081;50.584;7.032;2023-07-16T02:15:18;10.93;;;1.63;;
6101;SDS011;3081;50.584;7.032;2023-07-16T02:17:45;8.20;;;1.70;;
6101;SDS011;3081;50.584;7.032;2023-07-16T02:20:12;7.90;;;1.70;;
6101;SDS011;3081;50.584;7.032;2023-07-16T02:22:40;7.30;;;1.70;;
6101;SDS011;3081;50.584;7.032;2023-07-16T02:25:07;8.90;;;1.60;;
6101;SDS011;3081;50.584;7.032;2023-07-16T02:27:34;9.30;;;1.90;;
6101;SDS011;3081;50.584;7.032;2023-07-16T02:30:01;8.13;;;1.67;;
6101;SDS011;3081;50.584;7.032;2023-07-16T02:32:28;7.77;;;2.23;;
6101;SDS011;3081;50.584;7.032;2023-07-16T02:34:55;8.30;;;1.83;;
6101;SDS011;3081;50.584;7.032;2023-07-16T02:37:21;8.23;;;1.50;;
6101;SDS011;3081;50.584;7.032;2023-07-16T02:39:50;7.90;;;1.47;;
6101;SDS011;3081;50.584;7.032;2023-07-16T02:42:17;8.67;;;1.77;;
6101;SDS011;3081;50.584;7.032;2023-07-16T02:44:43;10.70;;;1.80;;
6101;SDS011;3081;50.584;7.032;2023-07-16T02:47:11;10.30;;;1.70;;
6101;SDS011;3081;50.584;7.032;2023-07-16T02:49:38;10.10;;;1.97;;
6101;SDS011;3081;50.584;7.032;2023-07-16T02:52:05;7.23;;;1.63;;
6101;SDS011;3081;50.584;7.032;2023-07-16T02:54:33;8.13;;;1.70;;
6101;SDS011;3081;50.584;7.032;2023-07-16T02:57:02;10.20;;;2.20;;
6101;SDS011;3081;50.584;7.032;2023-07-16T02:59:30;8.57;;;1.93;;
6101;SDS011;3081;50.584;7.032;2023-07-16T03:01:57;7.50;;;1.67;;
6101;SDS011;3081;50.584;7.032;2023-07-16T03:04:24;9.90;;;1.80;;
6101;SDS011;3081;50.584;7.032;2023-07-16T03:06:50;8.27;;;1.57;;
6101;SDS011;3081;50.584;7.032;2023-07-16T03:09:17;8.50;;;2.20;;
6101;SDS011;3081;50.584;7.032;2023-07-16T03:11:44;8.07;;;1.77;;
6101;SDS011;3081;50.584;7.032;2023-07-16T03:14:12;10.90;;;1.77;;
6101;SDS011;3081;50.584;7.032;2023-07-16T03:16:39;9.70;;;1.47;;
6101;SDS011;3081;50.584;7.032;2023-07-16T03:19:06;7.53;;;1.67;;
6101;SDS011;3081;50.584;7.032;2023-07-16T03:21:33;9.33;;;2.07;;
6101;SDS011;3081;50.584;7.032;2023-07-16T03:24:00;8.07;;;1.63;;
6101;SDS011;3081;50.584;7.032;2023-07-16T03:26:27;10.07;;;1.80;;
6101;SDS011;3081;50.584;7.032;2023-07-16T03:28:54;11.20;;;2.00;;
6101;SDS011;3081;50.584;7.032;2023-07-16T03:31:22;9.17;;;1.90;;
6101;SDS011;3081;50.584;7.032;2023-07-16T03:33:49;10.43;;;2.07;;
6101;SDS011;3081;50.584;7.032;2023-07-16T03:36:16;8.43;;;1.90;;
6101;SDS011;3081;50.584;7.032;2023-07-16T03:38:44;8.30;;;1.63;;
6101;SDS011;3081;50.584;7.032;2023-07-16T03:41:11;7.27;;;1.80;;
6101;SDS011;3081;50.584;7.032;2023-07-16T03:43:37;11.10;;;2.10;;
6101;SDS011;3081;50.584;7.032;2023-07-16T03:46:04;7.53;;;1.53;;
6101;SDS011;3081;50.584;7.032;2023-07-16T03:48:34;10.07;;;2.17;;
6101;SDS011;3081;50.584;7.032;2023-07-16T03:51:01;11.53;;;1.90;;
6101;SDS011;3081;50.584;7.032;2023-07-16T03:53:28;10.33;;;1.73;;
6101;SDS011;3081;50.584;7.032;2023-07-16T03:55:55;9.50;;;2.13;;
6101;SDS011;3081;50.584;7.032;2023-07-16T03:58:22;8.30;;;1.83;;
6101;SDS011;3081;50.584;7.032;2023-07-16T04:00:49;8.83;;;2.10;;
6101;SDS011;3081;50.584;7.032;2023-07-16T04:03:17;8.60;;;1.87;;
6101;SDS011;3081;50.584;7.032;2023-07-16T04:05:45;8.20;;;1.80;;
6101;SDS011;3081;50.584;7.032;2023-07-16T04:08:12;8.13;;;1.80;;
6101;SDS011;3081;50.584;7.032;2023-07-16T04:10:39;8.77;;;1.57;;
6101;SDS011;3081;50.584;7.032;2023-07-16T04:13:06;7.53;;;1.83;;
6101;SDS011;3081;50.584;7.032;2023-07-16T04:15:32;9.10;;;2.13;;
6101;SDS011;3081;50.584;7.032;2023-07-16T04:17:59;9.00;;;1.87;;
6101;SDS011;3081;50.584;7.032;2023-07-16T04:20:27;7.97;;;2.27;;
6101;SDS011;3081;50.584;7.032;2023-07-16T04:22:55;12.33;;;2.30;;
6101;SDS011;3081;50.584;7.032;2023-07-16T04:25:22;10.00;;;2.10;;
6101;SDS011;3081;50.584;7.032;2023-07-16T04:27:49;8.80;;;1.83;;
6101;SDS011;3081;50.584;7.032;2023-07-16T04:30:15;9.30;;;2.10;;
6101;SDS011;3081;50.584;7.032;2023-07-16T04:32:42;10.10;;;2.00;;
6101;SDS011;3081;50.584;7.032;2023-07-16T04:35:09;8.57;;;1.73;;
6101;SDS011;3081;50.584;7.032;2023-07-16T04:37:36;13.90;;;1.90;;
6101;SDS011;3081;50.584;7.032;2023-07-16T04:40:05;9.00;;;1.80;;
6101;SDS011;3081;50.584;7.032;2023-07-16T04:42:34;10.37;;;2.20;;
6101;SDS011;3081;50.584;7.032;2023-07-16T04:45:01;8.00;;;1.93;;
6101;SDS011;3081;50.584;7.032;2023-07-16T04:47:28;7.33;;;1.50;;
6101;SDS011;3081;50.584;7.032;2023-07-16T04:49:54;10.30;;;2.20;;
6101;SDS011;3081;50.584;7.032;2023-07-16T04:52:21;12.30;;;1.80;;
6101;SDS011;3081;50.584;7.032;2023-07-16T04:54:48;11.10;;;1.80;;
6101;SDS011;3081;50.584;7.032;2023-07-16T04:57:16;9.90;;;1.90;;
6101;SDS011;3081;50.584;7.032;2023-07-16T04:59:43;8.50;;;1.90;;
6101;SDS011;3081;50.584;7.032;2023-07-16T05:02:10;9.23;;;2.20;;
6101;SDS011;3081;50.584;7.032;2023-07-16T05:04:37;8.90;;;1.90;;
6101;SDS011;3081;50.584;7.032;2023-07-16T05:07:04;8.73;;;1.87;;
6101;SDS011;3081;50.584;7.032;2023-07-16T05:09:31;10.10;;;2.57;;
6101;SDS011;3081;50.584;7.032;2023-07-16T05:11:58;9.70;;;1.97;;
6101;SDS011;3081;50.584;7.032;2023-07-16T05:14:27;13.93;;;2.40;;
6101;SDS011;3081;50.584;7.032;2023-07-16T05:16:54;11.40;;;2.07;;
6101;SDS011;3081;50.584;7.032;2023-07-16T05:19:22;10.07;;;2.43;;
6101;SDS011;3081;50.584;7.032;2023-07-16T05:21:49;11.57;;;2.07;;
6101;SDS011;3081;50.584;7.032;2023-07-16T05:24:16;12.60;;;2.70;;
6101;SDS011;3081;50.584;7.032;2023-07-16T05:26:43;12.20;;;1.87;;
6101;SDS011;3081;50.584;7.032;2023-07-16T05:29:10;9.67;;;2.40;;
6101;SDS011;3081;50.584;7.032;2023-07-16T05:31:38;12.00;;;2.73;;
6101;SDS011;3081;50.584;7.032;2023-07-16T05:34:05;13.20;;;2.50;;
6101;SDS011;3081;50.584;7.032;2023-07-16T05:36:32;10.10;;;2.40;;
6101;SDS011;3081;50.584;7.032;2023-07-16T05:38:59;9.37;;;2.10;;
6101;SDS011;3081;50.584;7.032;2023-07-16T05:41:26;12.07;;;2.70;;
6101;SDS011;3081;50.584;7.032;2023-07-16T05:43:53;11.47;;;2.13;;
6101;SDS011;3081;50.584;7.032;2023-07-16T05:46:20;9.17;;;2.60;;
6101;SDS011;3081;50.584;7.032;2023-07-16T05:48:48;14.10;;;2.50;;
6101;SDS011;3081;50.584;7.032;2023-07-16T05:51:15;9.70;;;1.80;;
6101;SDS011;3081;50.584;7.032;2023-07-16T05:53:42;9.07;;;2.50;;
6101;SDS011;3081;50.584;7.032;2023-07-16T05:56:08;12.57;;;2.80;;
6101;SDS011;3081;50.584;7.032;2023-07-16T05:58:35;9.30;;;2.47;;
6101;SDS011;3081;50.584;7.032;2023-07-16T06:01:02;12.63;;;3.43;;
6101;SDS011;3081;50.584;7.032;2023-07-16T06:03:29;13.03;;;3.03;;
6101;SDS011;3081;50.584;7.032;2023-07-16T06:05:57;8.93;;;2.27;;
6101;SDS011;3081;50.584;7.032;2023-07-16T06:08:24;11.83;;;2.53;;
6101;SDS011;3081;50.584;7.032;2023-07-16T06:10:51;9.10;;;1.70;;
6101;SDS011;3081;50.584;7.032;2023-07-16T06:13:18;10.17;;;1.93;;
6101;SDS011;3081;50.584;7.032;2023-07-16T06:15:45;12.93;;;2.40;;
6101;SDS011;3081;50.584;7.032;2023-07-16T06:18:13;11.53;;;3.03;;
6101;SDS011;3081;50.584;7.032;2023-07-16T06:20:42;10.40;;;2.60;;
6101;SDS011;3081;50.584;7.032;2023-07-16T06:23:11;11.83;;;2.90;;
6101;SDS011;3081;50.584;7.032;2023-07-16T06:25:38;10.80;;;2.30;;
6101;SDS011;3081;50.584;7.032;2023-07-16T06:28:09;12.57;;;3.20;;
6101;SDS011;3081;50.584;7.032;2023-07-16T06:30:36;12.43;;;3.10;;
6101;SDS011;3081;50.584;7.032;2023-07-16T06:33:04;11.10;;;2.93;;
6101;SDS011;3081;50.584;7.032;2023-07-16T06:35:31;13.20;;;3.53;;
6101;SDS011;3081;50.584;7.032;2023-07-16T06:37:58;10.27;;;2.80;;
6101;SDS011;3081;50.584;7.032;2023-07-16T06:40:26;10.90;;;3.00;;
6101;SDS011;3081;50.584;7.032;2023-07-16T06:42:55;10.73;;;2.73;;
6101;SDS011;3081;50.584;7.032;2023-07-16T06:45:22;13.20;;;4.63;;
6101;SDS011;3081;50.584;7.032;2023-07-16T06:47:49;14.90;;;3.63;;
6101;SDS011;3081;50.584;7.032;2023-07-16T06:50:16;13.57;;;2.73;;
6101;SDS011;3081;50.584;7.032;2023-07-16T06:52:43;10.20;;;2.20;;
6101;SDS011;3081;50.584;7.032;2023-07-16T06:55:09;10.33;;;2.90;;
6101;SDS011;3081;50.584;7.032;2023-07-16T06:57:38;11.40;;;3.27;;
6101;SDS011;3081;50.584;7.032;2023-07-16T07:00:05;11.57;;;3.90;;
6101;SDS011;3081;50.584;7.032;2023-07-16T07:02:35;10.87;;;3.10;;
6101;SDS011;3081;50.584;7.032;2023-07-16T07:05:02;12.20;;;3.13;;
6101;SDS011;3081;50.584;7.032;2023-07-16T07:07:30;14.63;;;4.50;;
6101;SDS011;3081;50.584;7.032;2023-07-16T07:09:56;11.87;;;3.63;;
6101;SDS011;3081;50.584;7.032;2023-07-16T07:12:23;13.23;;;3.60;;
6101;SDS011;3081;50.584;7.032;2023-07-16T07:14:51;14.63;;;3.17;;
6101;SDS011;3081;50.584;7.032;2023-07-16T07:17:18;12.20;;;3.90;;
6101;SDS011;3081;50.584;7.032;2023-07-16T07:19:45;12.40;;;4.03;;
6101;SDS011;3081;50.584;7.032;2023-07-16T07:22:12;16.03;;;3.93;;
6101;SDS011;3081;50.584;7.032;2023-07-16T07:24:39;13.80;;;3.00;;
6101;SDS011;3081;50.584;7.032;2023-07-16T07:27:06;14.90;;;3.90;;
6101;SDS011;3081;50.584;7.032;2023-07-16T07:29:33;11.87;;;3.80;;
6101;SDS011;3081;50.584;7.032;2023-07-16T07:32:01;13.47;;;4.50;;
6101;SDS011;3081;50.584;7.032;2023-07-16T07:34:28;12.10;;;4.03;;
6101;SDS011;3081;50.584;7.032;2023-07-16T07:36:55;11.43;;;3.10;;
6101;SDS011;3081;50.584;7.032;2023-07-16T07:39:22;12.70;;;3.90;;
6101;SDS011;3081;50.584;7.032;2023-07-16T07:41:49;13.03;;;3.30;;
6101;SDS011;3081;50.584;7.032;2023-07-16T07:44:16;11.30;;;3.40;;
6101;SDS011;3081;50.584;7.032;2023-07-16T07:46:43;14.70;;;3.63;;
6101;SDS011;3081;50.584;7.032;2023-07-16T07:49:12;15.60;;;4.23;;
6101;SDS011;3081;50.584;7.032;2023-07-16T07:51:39;15.07;;;3.70;;
6101;SDS011;3081;50.584;7.032;2023-07-16T07:54:06;12.17;;;3.60;;
6101;SDS011;3081;50.584;7.032;2023-07-16T07:56:33;8.97;;;2.10;;
6101;SDS011;3081;50.584;7.032;2023-07-16T07:59:01;10.93;;;3.83;;
6101;SDS011;3081;50.584;7.032;2023-07-16T08:01:28;9.30;;;2.33;;
6101;SDS011;3081;50.584;7.032;2023-07-16T08:03:56;11.40;;;3.57;;
6101;SDS011;3081;50.584;7.032;2023-07-16T08:06:24;12.60;;;3.63;;
6101;SDS011;3081;50.584;7.032;2023-07-16T08:08:52;10.43;;;3.60;;
6101;SDS011;3081;50.584;7.032;2023-07-16T08:11:19;13.27;;;4.70;;
6101;SDS011;3081;50.584;7.032;2023-07-16T08:13:46;11.33;;;3.50;;
6101;SDS011;3081;50.584;7.032;2023-07-16T08:16:14;11.33;;;3.63;;
6101;SDS011;3081;50.584;7.032;2023-07-16T08:18:41;11.37;;;3.50;;
6101;SDS011;3081;50.584;7.032;2023-07-16T08:21:08;11.40;;;2.97;;
6101;SDS011;3081;50.584;7.032;2023-07-16T08:23:36;12.40;;;4.30;;
6101;SDS011;3081;50.584;7.032;2023-07-16T08:26:03;15.73;;;4.63;;
6101;SDS011;3081;50.584;7.032;2023-07-16T08:28:30;15.57;;;4.30;;
6101;SDS011;3081;50.584;7.032;2023-07-16T08:30:57;14.17;;;3.70;;
6101;SDS011;3081;50.584;7.032;2023-07-16T08:33:23;11.50;;;3.80;;
6101;SDS011;3081;50.584;7.032;2023-07-16T08:35:50;11.87;;;3.30;;
6101;SDS011;3081;50.584;7.032;2023-07-16T08:38:17;10.90;;;2.90;;
6101;SDS011;3081;50.584;7.032;2023-07-16T08:40:46;13.17;;;3.50;;
6101;SDS011;3081;50.584;7.032;2023-07-16T08:43:14;8.87;;;2.27;;
6101;SDS011;3081;50.584;7.032;2023-07-16T08:45:43;13.47;;;3.00;;
6101;SDS011;3081;50.584;7.032;2023-07-16T08:48:11;11.90;;;3.37;;
6101;SDS011;3081;50.584;7.032;2023-07-16T08:50:39;12.77;;;3.13;;
6101;SDS011;3081;50.584;7.032;2023-07-16T08:53:08;11.07;;;2.50;;
6101;SDS011;3081;50.584;7.032;2023-07-16T08:55:35;9.90;;;2.33;;
6101;SDS011;3081;50.584;7.032;2023-07-16T08:58:05;11.53;;;3.20;;
6101;SDS011;3081;50.584;7.032;2023-07-16T09:00:33;9.00;;;2.30;;
6101;SDS011;3081;50.584;7.032;2023-07-16T09:03:00;9.27;;;2.30;;
6101;SDS011;3081;50.584;7.032;2023-07-16T09:05:27;12.60;;;3.90;;
6101;SDS011;3081;50.584;7.032;2023-07-16T09:07:56;10.33;;;3.50;;
6101;SDS011;3081;50.584;7.032;2023-07-16T09:10:22;11.40;;;3.13;;
6101;SDS011;3081;50.584;7.032;2023-07-16T09:12:49;10.70;;;3.10;;
6101;SDS011;3081;50.584;7.032;2023-07-16T09:15:18;9.67;;;2.33;;
6101;SDS011;3081;50.584;7.032;2023-07-16T09:17:46;9.77;;;2.60;;
6101;SDS011;3081;50.584;7.032;2023-07-16T09:20:14;10.83;;;2.63;;
6101;SDS011;3081;50.584;7.032;2023-07-16T09:22:42;10.57;;;3.20;;
6101;SDS011;3081;50.584;7.032;2023-07-16T09:25:09;11.50;;;3.10;;
6101;SDS011;3081;50.584;7.032;2023-07-16T09:27:36;12.60;;;2.77;;
6101;SDS011;3081;50.584;7.032;2023-07-16T09:30:03;11.03;;;2.77;;
6101;SDS011;3081;50.584;7.032;2023-07-16T09:32:35;13.50;;;3.50;;
6101;SDS011;3081;50.584;7.032;2023-07-16T09:35:06;11.57;;;2.97;;
6101;SDS011;3081;50.584;7.032;2023-07-16T09:37:33;10.80;;;3.00;;
6101;SDS011;3081;50.584;7.032;2023-07-16T09:40:03;9.83;;;2.73;;
6101;SDS011;3081;50.584;7.032;2023-07-16T09:42:33;11.00;;;2.67;;
6101;SDS011;3081;50.584;7.032;2023-07-16T09:45:04;10.87;;;2.57;;
6101;SDS011;3081;50.584;7.032;2023-07-16T09:47:33;12.47;;;2.80;;
6101;SDS011;3081;50.584;7.032;2023-07-16T09:50:01;16.23;;;2.60;;
6101;SDS011;3081;50.584;7.032;2023-07-16T09:52:29;12.03;;;3.13;;
6101;SDS011;3081;50.584;7.032;2023-07-16T09:54:57;9.80;;;2.70;;
6101;SDS011;3081;50.584;7.032;2023-07-16T09:57:28;9.27;;;2.50;;
6101;SDS011;3081;50.584;7.032;2023-07-16T09:59:58;9.77;;;2.60;;
6101;SDS011;3081;50.584;7.032;2023-07-16T10:02:30;9.70;;;2.67;;
6101;SDS011;3081;50.584;7.032;2023-07-16T10:04:59;9.70;;;2.57;;
6101;SDS011;3081;50.584;7.032;2023-07-16T10:07:37;8.27;;;1.77;;
6101;SDS011;3081;50.584;7.032;2023-07-16T10:10:07;12.83;;;2.87;;
6101;SDS011;3081;50.584;7.032;2023-07-16T10:12:35;10.50;;;2.70;;
6101;SDS011;3081;50.584;7.032;2023-07-16T10:15:04;10.97;;;3.20;;
6101;SDS011;3081;50.584;7.032;2023-07-16T10:17:31;9.83;;;2.40;;
6101;SDS011;3081;50.584;7.032;2023-07-16T10:19:59;9.47;;;2.27;;
6101;SDS011;3081;50.584;7.032;2023-07-16T10:22:37;8.93;;;2.47;;
6101;SDS011;3081;50.584;7.032;2023-07-16T10:25:07;10.80;;;2.20;;
6101;SDS011;3081;50.584;7.032;2023-07-16T10:27:36;9.27;;;2.40;;
6101;SDS011;3081;50.584;7.032;2023-07-16T10:30:03;11.40;;;2.67;;
6101;SDS011;3081;50.584;7.032;2023-07-16T10:32:32;10.33;;;2.70;;
6101;SDS011;3081;50.584;7.032;2023-07-16T10:34:59;10.10;;;2.63;;
6101;SDS011;3081;50.584;7.032;2023-07-16T10:37:27;10.80;;;2.90;;
6101;SDS011;3081;50.584;7.032;2023-07-16T10:39:56;10.57;;;3.60;;
6101;SDS011;3081;50.584;7.032;2023-07-16T10:42:24;8.37;;;2.40;;
6101;SDS011;3081;50.584;7.032;2023-07-16T10:44:52;10.17;;;2.77;;
6101;SDS011;3081;50.584;7.032;2023-07-16T10:47:22;9.90;;;2.40;;
6101;SDS011;3081;50.584;7.032;2023-07-16T10:49:50;9.47;;;3.20;;
6101;SDS011;3081;50.584;7.032;2023-07-16T10:52:19;9.10;;;2.50;;
6101;SDS011;3081;50.584;7.032;2023-07-16T10:54:46;10.53;;;2.80;;
6101;SDS011;3081;50.584;7.032;2023-07-16T10:57:15;9.07;;;2.27;;
6101;SDS011;3081;50.584;7.032;2023-07-16T10:59:44;8.87;;;2.30;;
6101;SDS011;3081;50.584;7.032;2023-07-16T11:02:11;9.10;;;2.50;;
6101;SDS011;3081;50.584;7.032;2023-07-16T11:04:39;11.17;;;2.80;;
6101;SDS011;3081;50.584;7.032;2023-07-16T11:07:07;10.27;;;3.20;;
6101;SDS011;3081;50.584;7.032;2023-07-16T11:09:39;8.70;;;2.77;;
6101;SDS011;3081;50.584;7.032;2023-07-16T11:12:08;9.93;;;2.77;;
6101;SDS011;3081;50.584;7.032;2023-07-16T11:14:36;12.27;;;2.73;;
6101;SDS011;3081;50.584;7.032;2023-07-16T11:17:04;11.33;;;3.30;;
6101;SDS011;3081;50.584;7.032;2023-07-16T11:19:32;9.03;;;2.40;;
6101;SDS011;3081;50.584;7.032;2023-07-16T11:22:00;10.53;;;3.00;;
6101;SDS011;3081;50.584;7.032;2023-07-16T11:24:35;9.57;;;2.60;;
6101;SDS011;3081;50.584;7.032;2023-07-16T11:27:03;10.00;;;2.60;;
6101;SDS011;3081;50.584;7.032;2023-07-16T11:29:33;8.70;;;2.30;;
6101;SDS011;3081;50.584;7.032;2023-07-16T11:32:02;9.67;;;1.93;;
6101;SDS011;3081;50.584;7.032;2023-07-16T11:34:29;9.27;;;2.50;;
6101;SDS011;3081;50.584;7.032;2023-07-16T11:37:06;9.03;;;2.47;;
6101;SDS011;3081;50.584;7.032;2023-07-16T11:39:34;8.47;;;2.10;;
6101;SDS011;3081;50.584;7.032;2023-07-16T11:42:02;8.30;;;1.93;;
6101;SDS011;3081;50.584;7.032;2023-07-16T11:44:33;7.90;;;2.00;;
6101;SDS011;3081;50.584;7.032;2023-07-16T11:47:02;10.17;;;2.43;;
6101;SDS011;3081;50.584;7.032;2023-07-16T11:49:29;18.10;;;2.60;;
6101;SDS011;3081;50.584;7.032;2023-07-16T11:51:56;8.43;;;2.13;;
6101;SDS011;3081;50.584;7.032;2023-07-16T11:54:24;9.97;;;2.67;;
6101;SDS011;3081;50.584;7.032;2023-07-16T11:56:51;10.40;;;2.50;;
6101;SDS011;3081;50.584;7.032;2023-07-16T11:59:18;8.00;;;2.20;;
6101;SDS011;3081;50.584;7.032;2023-07-16T12:01:46;8.80;;;2.70;;
6101;SDS011;3081;50.584;7.032;2023-07-16T12:04:17;7.87;;;1.90;;
6101;SDS011;3081;50.584;7.032;2023-07-16T12:06:44;7.27;;;1.40;;
6101;SDS011;3081;50.584;7.032;2023-07-16T12:09:11;7.83;;;1.60;;
6101;SDS011;3081;50.584;7.032;2023-07-16T12:11:37;10.50;;;2.20;;
6101;SDS011;3081;50.584;7.032;2023-07-16T12:14:05;9.07;;;2.47;;
6101;SDS011;3081;50.584;7.032;2023-07-16T12:16:31;8.87;;;2.27;;
6101;SDS011;3081;50.584;7.032;2023-07-16T12:18:58;9.80;;;3.07;;
6101;SDS011;3081;50.584;7.032;2023-07-16T12:21:26;9.00;;;2.50;;
6101;SDS011;3081;50.584;7.032;2023-07-16T12:23:53;9.43;;;2.50;;
6101;SDS011;3081;50.584;7.032;2023-07-16T12:26:20;11.03;;;2.60;;
6101;SDS011;3081;50.584;7.032;2023-07-16T12:28:46;8.47;;;1.93;;
6101;SDS011;3081;50.584;7.032;2023-07-16T12:31:13;11.73;;;2.03;;
6101;SDS011;3081;50.584;7.032;2023-07-16T12:33:41;8.90;;;2.00;;
6101;SDS011;3081;50.584;7.032;2023-07-16T12:36:08;9.60;;;2.40;;
6101;SDS011;3081;50.584;7.032;2023-07-16T12:38:36;9.97;;;2.70;;
6101;SDS011;3081;50.584;7.032;2023-07-16T12:41:03;11.47;;;2.13;;
6101;SDS011;3081;50.584;7.032;2023-07-16T12:43:30;9.10;;;2.50;;
6101;SDS011;3081;50.584;7.032;2023-07-16T12:45:59;8.97;;;2.33;;
6101;SDS011;3081;50.584;7.032;2023-07-16T12:48:27;8.27;;;2.20;;
6101;SDS011;3081;50.584;7.032;2023-07-16T12:50:54;7.80;;;1.73;;
6101;SDS011;3081;50.584;7.032;2023-07-16T12:53:21;8.50;;;2.10;;
6101;SDS011;3081;50.584;7.032;2023-07-16T12:55:49;8.20;;;2.03;;
6101;SDS011;3081;50.584;7.032;2023-07-16T12:58:16;11.40;;;2.30;;
6101;SDS011;3081;50.584;7.032;2023-07-16T13:00:43;11.07;;;2.53;;
6101;SDS011;3081;50.584;7.032;2023-07-16T13:03:10;10.93;;;2.20;;
6101;SDS011;3081;50.584;7.032;2023-07-16T13:05:41;8.90;;;2.30;;
6101;SDS011;3081;50.584;7.032;2023-07-16T13:08:08;8.80;;;2.20;;
6101;SDS011;3081;50.584;7.032;2023-07-16T13:10:35;8.37;;;1.70;;
6101;SDS011;3081;50.584;7.032;2023-07-16T13:13:04;11.47;;;2.40;;
6101;SDS011;3081;50.584;7.032;2023-07-16T13:15:32;12.33;;;2.57;;
6101;SDS011;3081;50.584;7.032;2023-07-16T13:17:59;8.93;;;1.77;;
6101;SDS011;3081;50.584;7.032;2023-07-16T13:20:26;9.87;;;2.50;;
6101;SDS011;3081;50.584;7.032;2023-07-16T13:22:55;11.97;;;2.10;;
6101;SDS011;3081;50.584;7.032;2023-07-16T13:25:22;9.13;;;2.90;;
6101;SDS011;3081;50.584;7.032;2023-07-16T13:27:49;8.90;;;2.33;;
6101;SDS011;3081;50.584;7.032;2023-07-16T13:30:17;7.80;;;2.20;;
6101;SDS011;3081;50.584;7.032;2023-07-16T13:32:44;12.90;;;2.83;;
6101;SDS011;3081;50.584;7.032;2023-07-16T13:35:11;8.97;;;2.10;;
6101;SDS011;3081;50.584;7.032;2023-07-16T13:37:38;7.70;;;1.63;;
6101;SDS011;3081;50.584;7.032;2023-07-16T13:40:05;10.47;;;3.10;;
6101;SDS011;3081;50.584;7.032;2023-07-16T13:42:33;9.47;;;1.97;;
6101;SDS011;3081;50.584;7.032;2023-07-16T13:45:00;9.27;;;2.13;;
6101;SDS011;3081;50.584;7.032;2023-07-16T13:47:28;11.83;;;2.77;;
6101;SDS011;3081;50.584;7.032;2023-07-16T13:49:55;9.00;;;1.97;;
6101;SDS011;3081;50.584;7.032;2023-07-16T13:52:22;9.90;;;2.97;;
6101;SDS011;3081;50.584;7.032;2023-07-16T13:54:49;8.97;;;2.27;;
6101;SDS011;3081;50.584;7.032;2023-07-16T13:57:16;9.10;;;2.30;;
6101;SDS011;3081;50.584;7.032;2023-07-16T13:59:43;10.63;;;2.70;;
6101;SDS011;3081;50.584;7.032;2023-07-16T14:02:10;9.10;;;2.73;;
6101;SDS011;3081;50.584;7.032;2023-07-16T14:04:38;11.87;;;2.40;;
6101;SDS011;3081;50.584;7.032;2023-07-16T14:07:05;9.93;;;2.63;;
6101;SDS011;3081;50.584;7.032;2023-07-16T14:09:32;12.33;;;2.43;;
6101;SDS011;3081;50.584;7.032;2023-07-16T14:11:59;11.00;;;2.17;;
6101;SDS011;3081;50.584;7.032;2023-07-16T14:14:26;9.60;;;2.70;;
6101;SDS011;3081;50.584;7.032;2023-07-16T14:16:54;9.20;;;2.17;;
6101;SDS011;3081;50.584;7.032;2023-07-16T14:19:21;8.23;;;2.20;;
6101;SDS011;3081;50.584;7.032;2023-07-16T14:21:50;9.70;;;2.27;;
6101;SDS011;3081;50.584;7.032;2023-07-16T14:24:16;12.30;;;2.00;;
6101;SDS011;3081;50.584;7.032;2023-07-16T14:26:43;8.10;;;2.10;;
6101;SDS011;3081;50.584;7.032;2023-07-16T14:29:11;8.10;;;1.93;;
6101;SDS011;3081;50.584;7.032;2023-07-16T14:31:39;9.50;;;2.37;;
6101;SDS011;3081;50.584;7.032;2023-07-16T14:34:05;8.30;;;1.80;;
6101;SDS011;3081;50.584;7.032;2023-07-16T14:36:32;6.50;;;1.70;;
6101;SDS011;3081;50.584;7.032;2023-07-16T14:39:01;6.83;;;1.47;;
6101;SDS011;3081;50.584;7.032;2023-07-16T14:41:28;7.90;;;1.93;;
6101;SDS011;3081;50.584;7.032;2023-07-16T14:43:55;9.00;;;2.10;;
6101;SDS011;3081;50.584;7.032;2023-07-16T14:46:22;9.27;;;1.93;;
6101;SDS011;3081;50.584;7.032;2023-07-16T14:48:50;7.17;;;1.63;;
6101;SDS011;3081;50.584;7.032;2023-07-16T14:51:20;8.63;;;1.13;;
6101;SDS011;3081;50.584;7.032;2023-07-16T14:53:48;7.70;;;1.67;;
6101;SDS011;3081;50.584;7.032;2023-07-16T14:56:16;7.67;;;1.93;;
6101;SDS011;3081;50.584;7.032;2023-07-16T14:58:43;7.90;;;1.90;;
6101;SDS011;3081;50.584;7.032;2023-07-16T15:01:10;9.37;;;1.93;;
6101;SDS011;3081;50.584;7.032;2023-07-16T15:03:37;8.23;;;2.23;;
6101;SDS011;3081;50.584;7.032;2023-07-16T15:06:05;6.63;;;1.73;;
6101;SDS011;3081;50.584;7.032;2023-07-16T15:08:32;6.97;;;1.70;;
6101;SDS011;3081;50.584;7.032;2023-07-16T15:10:59;5.47;;;1.50;;
6101;SDS011;3081;50.584;7.032;2023-07-16T15:13:27;5.17;;;1.30;;
6101;SDS011;3081;50.584;7.032;2023-07-16T15:15:54;6.10;;;1.90;;